Aviation Digital Data Service (ADDS)

Output produced by METARs form (0929 UTC 24 October 2014)
found at http://aviationweather.gov/adds/metars/
 
KSWF 240831Z 2409/2512 32005KT P6SM VCSH SCT020 OVC030 
     TEMPO 2411/2414 6SM -SHRA 
     FM241400 34010KT P6SM FEW020 BKN035 
     FM241600 34014G22KT P6SM SCT020 BKN035 
     FM242200 33010KT P6SM SCT040 SCT150 
     FM250000 31006KT P6SM SCT250 AMD NOT SKED